x

West Erie - 16 Nm Nw Of Lorain, Oh (45005) Wave Buoy

8:50pm - Mon 25th Jul 2016 All times are CDT. -5 hours from GMT.

  • Sig Wave height 0.7ft
  • Average Period 3s
  • Wind
    9mph
  • Sea Temp 78°f
  • Air Temp 80°f
  • Sea Pressure 1014.2mb
  • West Erie - 16 Nm Nw Of Lorain, Oh
  • West Erie - 16 Nm Nw Of Lorain, Oh

More Historic Weather Station data

Upgrade to MSW Pro to gain access to the past 30 days of data for over 8000 Wavebouys and Weather Stations around the globe.

Join Pro

Comparision Forecast

View Surf forecast
   
Mon 07/25 8:50pm 0.7ft  -  3s 9
mph
1014.2mb 78f 80f
8:40pm  -   -   -  9 11 mph 1014.1mb 78f 80f
8:30pm  -   -   -  9 11 mph 1014mb 78f 80f
8:20pm  -   -   -  9 11 mph 1014mb 78f 80f
8:10pm  -   -   -  9 11 mph 1013.9mb 78f 80f
8:00pm  -   -   -  9 11 mph 1013.8mb 78f 80f
7:50pm 0.7ft  -  3s 9 11 mph 1013.6mb 78f 80f
7:40pm  -   -   -  9 11 mph 1013.4mb 78f 81f
7:30pm  -   -   -  9 11 mph 1013.4mb 78f 80f
7:20pm  -   -   -  9 11 mph 1013.3mb 78f 80f
7:10pm  -   -   -  9 11 mph 1013mb 78f 80f
7:00pm  -   -   -  9 11 mph 1013mb 78f 81f
6:50pm 0.3ft  -  3s 9 11 mph 1013mb 78f 81f
6:40pm  -   -   -  9 11 mph 1012.9mb 78f 81f
6:30pm  -   -   -  9 11 mph 1012.9mb 78f 81f
6:20pm  -   -   -  9 11 mph 1012.8mb 78f 81f
6:10pm  -   -   -  9 11 mph 1012.7mb 78f 81f
6:00pm  -   -   -  9 11 mph 1012.6mb 78f 81f
5:50pm 0.7ft  -  3s 9 11 mph 1012.6mb 78f 81f
5:40pm  -   -   -  9 11 mph 1012.7mb 78f 81f
5:30pm  -   -   -  9 11 mph 1012.8mb 78f 81f
5:20pm  -   -   -  9 11 mph 1012.8mb 78f 81f
5:10pm  -   -   -  9 11 mph 1012.6mb 78f 81f
5:00pm  -   -   -  9 11 mph 1012.6mb 78f 80f
4:50pm 0.7ft  -  3s 7 9 mph 1012.7mb 78f 80f
4:40pm  -   -   -  9 11 mph 1012.7mb 78f 80f
4:30pm  -   -   -  9 11 mph 1012.8mb 78f 81f
4:20pm  -   -   -  9 11 mph 1012.8mb 78f 81f
4:10pm  -   -   -  9 11 mph 1012.9mb 78f 80f
4:00pm  -   -   -  9 11 mph 1012.9mb 78f 80f
3:50pm 1ft 3s 3s 7 9 mph 1013mb 78f 80f
3:40pm  -   -   -  9 11 mph 1013.2mb 78f 80f
3:30pm  -   -   -  9
mph
1013.2mb 78f 79f
3:20pm  -   -   -  9
mph
1013.3mb 78f 79f
3:10pm  -   -   -  9 11 mph 1013.3mb 78f 79f
3:00pm  -   -   -  9 11 mph 1013.4mb 78f 79f
2:50pm 1ft 3s 3s 9 13 mph 1013.5mb 78f 79f
2:40pm  -   -   -  11 13 mph 1013.6mb 78f 79f
2:30pm  -   -   -  11 13 mph 1013.6mb 78f 79f
2:20pm  -   -   -  11 13 mph 1013.7mb 78f 79f
2:10pm  -   -   -  11 13 mph 1013.8mb 78f 79f
2:00pm  -   -   -  11 13 mph 1013.8mb 78f 79f
1:50pm 1.3ft 3s 3s 11 13 mph 1014mb 78f 79f
1:40pm  -   -   -  11 13 mph 1014mb 78f 79f
1:30pm  -   -   -  11 16 mph 1014mb 78f 79f
1:20pm  -   -   -  11 16 mph 1014.1mb 78f 79f
1:10pm  -   -   -  13 16 mph 1014mb 78f 78f
1:00pm  -   -   -  11 16 mph 1014.1mb 78f 78f
12:50pm 1.3ft 3s 3s 11 13 mph 1014.1mb 78f 78f
12:40pm  -   -   -  11 13 mph 1014.1mb 78f 78f
12:30pm  -   -   -  11 16 mph 1014.2mb 78f 78f
12:20pm  -   -   -  13 16 mph 1014.2mb 77f 78f
12:10pm  -   -   -  13 18 mph 1014.3mb 77f 78f
12:00pm  -   -   -  13 16 mph 1014.3mb 77f 78f
11:50am 1.6ft 4s 3s 13 18 mph 1014.3mb 77f 78f
11:40am  -   -   -  16 20 mph 1014.5mb 77f 78f
11:30am  -   -   -  16 18 mph 1014.4mb 77f 78f
11:20am  -   -   -  16 18 mph 1014.4mb 77f 78f
11:10am  -   -   -  13 18 mph 1014.3mb 77f 78f
11:00am  -   -   -  13 18 mph 1014.3mb 77f 78f
10:50am 2.5ft 4s 3s 13 16 mph 1014.2mb 77f 78f
10:40am  -   -   -  16 18 mph 1014.2mb 77f 78f
10:30am  -   -   -  16 18 mph 1014.1mb 77f 78f
10:20am  -   -   -  16 20 mph 1014.2mb 77f 78f
10:10am  -   -   -  16 20 mph 1014.2mb 77f 78f
10:00am  -   -   -  18 20 mph 1014.2mb 77f 78f
9:50am 2.5ft 4s 3s 18 22 mph 1014.1mb 77f 78f
9:40am  -   -   -  18 25 mph 1013.9mb 77f 78f
9:30am  -   -   -  18 20 mph 1013.8mb - 78f
9:20am  -   -   -  18 22 mph 1013.7mb 77f 78f
9:10am  -   -   -  20 25 mph 1013.7mb 77f 78f
9:00am  -   -   -  20 25 mph 1013.6mb 77f 78f
8:50am 2ft 3s 3s 20 25 mph 1013.7mb 77f 79f
8:40am  -   -   -  18 25 mph 1013.6mb 77f 79f
8:30am  -   -   -  18 22 mph 1013.5mb 77f 79f
8:20am  -   -   -  18 25 mph 1013.5mb 77f 79f
8:10am  -   -   -  18 22 mph 1013.3mb 77f 79f
8:00am  -   -   -  16 20 mph 1013.3mb 77f 79f
7:50am 1.6ft  -  3s 16 20 mph 1013.1mb 77f 79f
7:40am  -   -   -  16 22 mph 1013.2mb 77f 79f
7:30am  -   -   -  18 22 mph 1013.4mb 77f 79f
7:20am  -   -   -  16 18 mph 1013.2mb 77f 79f
7:10am  -   -   -  13 18 mph 1013.2mb 77f 79f
7:00am  -   -   -  13 18 mph 1013.2mb 77f 79f
6:50am 1.3ft 3s 3s 13 18 mph 1013mb 77f 79f
6:40am  -   -   -  13 16 mph 1012.8mb 77f 78f
6:30am  -   -   -  11 13 mph 1012.7mb 77f 78f
6:20am  -   -   -  13 16 mph 1012.6mb 77f 78f
6:10am  -   -   -  11 13 mph 1012.6mb 77f 78f
6:00am  -   -   -  11 13 mph 1012.6mb 77f 78f
5:50am 1.6ft 3s 3s 11 13 mph 1012.5mb 77f 78f
5:40am  -   -   -  11 13 mph 1012.4mb 77f 78f
5:30am  -   -   -  13 16 mph 1012.4mb 77f 78f
5:20am  -   -   -  11 16 mph 1012.3mb 77f 78f
5:10am  -   -   -  11 16 mph 1012.4mb 77f 78f
5:00am  -   -   -  11 16 mph 1012.1mb 77f 79f
4:50am 1.6ft 3s 3s 11 16 mph 1012mb 77f 79f
4:40am  -   -   -  13 18 mph 1012.1mb 77f 80f
4:30am  -   -   -  16 20 mph 1012.2mb 77f 80f
4:20am  -   -   -  16 22 mph 1012.3mb 77f 79f
4:10am  -   -   -  16 18 mph 1012.6mb 77f 78f
4:00am  -   -   -  16 18 mph 1012.6mb 77f 78f
3:50am 1.6ft 3s 3s 16 18 mph 1012.7mb 77f 78f
3:40am  -   -   -  16 18 mph 1012.6mb 77f 78f
3:30am  -   -   -  16 18 mph 1012.5mb 77f 78f
3:20am  -   -   -  13 18 mph 1012.5mb 77f 78f
3:10am  -   -   -  13 16 mph 1012.5mb 77f 78f
3:00am  -   -   -  16 18 mph 1012.4mb 77f 78f
2:50am 2ft 3s 3s 16 18 mph 1012.2mb 77f 78f
2:40am  -   -   -  18 20 mph 1012.3mb - 78f
2:30am  -   -   -  16 20 mph 1012.4mb 78f 78f
2:20am  -   -   -  18 20 mph 1012.4mb 78f 79f
2:10am  -   -   -  18 20 mph 1012.5mb 78f 79f
2:00am  -   -   -  18 22 mph 1012.6mb 78f 79f
1:50am 1.6ft 3s 3s 18 22 mph 1012.6mb 78f 79f
1:40am  -   -   -  20 22 mph 1012.5mb 78f 79f
1:30am  -   -   -  18 22 mph 1012.6mb 78f 79f
1:20am  -   -   -  16 20 mph 1012.8mb 78f 79f
1:10am  -   -   -  16 18 mph 1012.9mb 78f 79f
1:00am  -   -   -  16 20 mph 1012.9mb 78f 79f
12:50am 1ft 3s 3s 16 20 mph 1012.9mb 78f 79f
12:40am  -   -   -  16 20 mph 1013mb 78f 79f
12:30am  -   -   -  16 18 mph 1013mb 78f 79f
12:20am  -   -   -  13 18 mph 1013mb 78f 79f
12:10am  -   -   -  13 16 mph 1012.9mb 78f 79f
12:00am  -   -   -  13 16 mph 1012.9mb 78f 79f
Sun 07/24 11:50pm 0.7ft  -  2s 13 16 mph 1012.8mb 78f 79f
11:40pm  -   -   -  13 18 mph 1012.9mb 78f 79f
11:30pm  -   -   -  13 18 mph 1013mb 78f 79f
11:20pm  -   -   -  13 18 mph 1012.9mb 78f 79f
11:10pm  -   -   -  13 16 mph 1012.9mb 78f 79f
11:00pm  -   -   -  13 16 mph 1012.9mb 78f 79f
10:50pm 0.7ft  -  2s 11 13 mph 1013mb 78f 79f
10:40pm  -   -   -  13 16 mph 1013.1mb 78f 79f
10:30pm  -   -   -  13 16 mph 1013.2mb 78f 79f
10:20pm  -   -   -  13 16 mph 1013.3mb 78f 79f
10:10pm  -   -   -  13 16 mph 1013.5mb 78f 79f
10:00pm  -   -   -  13 16 mph 1013.6mb 78f 79f
9:50pm 0.3ft  -  3s 13 16 mph 1013.6mb 78f 79f
9:40pm  -   -   -  11 13 mph 1013.7mb 78f 79f
9:30pm  -   -   -  11 13 mph 1013.8mb 78f 79f
9:20pm  -   -   -  9 11 mph 1013.7mb 78f 79f
9:10pm  -   -   -  9 11 mph 1013.8mb 78f 79f
9:00pm  -   -   -  9 11 mph 1013.8mb 78f 79f
8:50pm 0.3ft  -  3s 9 11 mph 1013.7mb 78f 79f
8:40pm  -   -   -  9
mph
1013.6mb 78f 79f
8:30pm  -   -   -  9 11 mph 1013.4mb 78f 78f
8:20pm  -   -   -  9
mph
1013.4mb 78f 78f
8:10pm  -   -   -  7 9 mph 1013.4mb 78f 78f
8:00pm  -   -   -  7
mph
- 78f -
7:50pm 0.7ft  -  3s 4 7 mph 1013.7mb 78f 78f
7:40pm  -   -   -  7
mph
1013.8mb 78f 78f
7:30pm  -   -   -  4 7 mph 1014mb 78f 78f
7:20pm  -   -   -  4 7 mph 1014.1mb 78f 78f
7:10pm  -   -   -  4
mph
1014.1mb 78f 78f
7:00pm  -   -   -  4
mph
1014.2mb 78f 78f
6:50pm 1ft 3s 3s 4
mph
1014.1mb 78f 78f
6:40pm  -   -   -  4 7 mph 1014mb 78f 78f
6:30pm  -   -   -  4 7 mph 1014mb 78f 78f
6:20pm  -   -   -  4 7 mph 1013.9mb 78f 78f
6:10pm  -   -   -  4 7 mph 1013.8mb 78f 78f
6:00pm  -   -   -  7 9 mph 1013.8mb 78f 78f
5:50pm 1.3ft 3s 3s 7
mph
1013.7mb 78f 78f
5:40pm  -   -   -  7
mph
1013.8mb 78f 78f
5:30pm  -   -   -  7 9 mph 1013.7mb 78f 78f
5:20pm  -   -   -  7 9 mph 1013.8mb 78f 78f
5:10pm  -   -   -  7 9 mph 1013.8mb 78f 78f
5:00pm  -   -   -  9 11 mph 1013.7mb - 77f
4:50pm 1.6ft 4s 3s 11
mph
1013.7mb 78f 77f
4:40pm  -   -   -  9 11 mph 1013.6mb 78f 76f
4:30pm  -   -   -  11 13 mph 1013.7mb 78f 76f
4:20pm  -   -   -  11 13 mph 1013.9mb 78f 77f
4:10pm  -   -   -  11 13 mph 1013.6mb 78f 77f
4:00pm  -   -   -  13 16 mph 1013.8mb 78f 77f
3:50pm 2.5ft 4s 3s 13 16 mph 1013.8mb 78f 77f
3:40pm 2.5ft  -  3s 16 18 mph 1013.9mb 78f 77f
3:30pm  -   -   -  16 18 mph 1014mb 78f 77f
3:20pm  -   -   -  18 22 mph 1014.3mb 78f 76f
3:10pm  -   -   -  18 22 mph 1014.5mb 78f 76f
3:00pm  -   -   -  20 25 mph 1014.5mb 78f 76f
2:50pm 2.5ft 4s 3s 20 27 mph 1014.4mb 78f 76f
2:40pm 2.5ft  -  3s 22 27 mph 1014.4mb 78f 76f
2:30pm  -   -   -  22 29 mph 1014.5mb 78f 76f
2:20pm  -   -   -  20 27 mph 1014.8mb 78f 76f
2:10pm  -   -   -  20 25 mph 1015.2mb 78f 76f
2:00pm  -   -   -  22 27 mph 1015.1mb 78f 77f
1:50pm 1.3ft 3s 3s 22 27 mph 1015mb 78f 78f
1:40pm  -   -   -  18 25 mph 1015.1mb 78f 78f
1:30pm  -   -   -  16 20 mph 1015mb 78f 78f
1:20pm  -   -   -  13 20 mph 1015mb 78f 78f
1:10pm  -   -   -  13 16 mph 1015mb 78f 78f
1:00pm  -   -   -  13 16 mph 1015mb 78f 78f
12:50pm 1.6ft 3s 3s 13 18 mph 1014.9mb 78f 78f
12:40pm  -   -   -  16 20 mph 1014.9mb 78f 78f
12:30pm  -   -   -  16 20 mph 1014.9mb 78f 78f
12:20pm  -   -   -  16 20 mph 1014.7mb 78f 77f
12:10pm  -   -   -  16 18 mph 1014.8mb 78f 77f
12:00pm  -   -   -  16 18 mph 1014.9mb 78f 77f
11:50am 1.6ft 3s 3s 16 18 mph 1015mb 78f 77f
11:40am  -   -   -  18 20 mph 1015mb 78f 76f
11:30am  -   -   -  18 22 mph 1015mb 78f 76f
11:20am  -   -   -  20 27 mph 1014.9mb 78f 76f
11:10am  -   -   -  20 27 mph 1015.1mb 78f 78f
11:00am  -   -   -  16 20 mph 1015.3mb 78f 79f
10:50am 1ft 3s 3s 13 20 mph 1014.9mb 78f 79f
10:40am  -   -   -  11 16 mph 1014.8mb 78f 79f
10:30am  -   -   -  9 11 mph 1014.7mb 78f 80f
10:20am  -   -   -  7 9 mph 1014.9mb 78f 79f
10:10am  -   -   -  9 11 mph 1015mb 78f 79f
10:00am  -   -   -  9 11 mph 1015mb 78f 80f
9:50am 1ft 3s 3s 9 11 mph 1014.9mb 78f 80f
9:40am  -   -   -  9 11 mph 1014.9mb 78f 80f
9:30am  -   -   -  9 11 mph 1014.9mb - 80f
9:20am  -   -   -  9 11 mph 1015.1mb 78f 80f
9:10am  -   -   -  9 13 mph 1015.1mb 78f 80f
9:00am  -   -   -  9 13 mph 1015mb 78f 80f
8:50am 1ft 2s 3s 9 11 mph 1015mb 78f 80f
8:40am  -   -   -  9 11 mph 1015mb 78f 80f
8:30am  -   -   -  9 13 mph 1014.9mb 78f 80f
8:20am  -   -   -  9 11 mph 1015.2mb 78f 80f
8:10am  -   -   -  9 13 mph 1015.1mb 78f 80f
8:00am  -   -   -  11 13 mph 1015mb 78f 80f
7:50am 0.7ft  -  2s 9 11 mph 1014.9mb 78f 79f
7:40am  -   -   -  11 13 mph 1014.9mb 78f 79f
7:30am  -   -   -  11 13 mph 1014.8mb 78f 79f
7:20am  -   -   -  11 13 mph 1014.9mb 78f 79f
7:10am  -   -   -  11 13 mph 1014.7mb 78f 79f
7:00am  -   -   -  11 13 mph 1014.6mb 78f 79f
6:50am 0.7ft  -  2s 9 11 mph 1014.5mb 78f 78f
6:40am  -   -   -  9 11 mph 1014.6mb 78f 78f
6:30am  -   -   -  11 13 mph 1014.5mb 78f 78f
6:20am  -   -   -  9 11 mph 1014.6mb 78f 78f
6:10am  -   -   -  9 11 mph 1014.8mb 78f 78f
6:00am  -   -   -  9
mph
1014.9mb 78f 79f
5:50am 0.7ft  -  3s 9 11 mph 1015mb 78f 79f
5:40am  -   -   -  9 11 mph 1015mb 78f 79f
5:30am  -   -   -  9 11 mph 1015.2mb 78f 78f
5:20am  -   -   -  9
mph
1015.2mb 78f 78f
5:10am  -   -   -  9
mph
1015.2mb 78f 78f
5:00am  -   -   -  9
mph
1015.3mb 78f 78f
4:50am 0.7ft  -  3s 7 9 mph 1015.3mb 78f 78f
4:40am  -   -   -  7 9 mph 1015.3mb 78f 79f
4:30am  -   -   -  9 11 mph 1015.3mb 78f 79f
4:20am  -   -   -  9 11 mph 1015.2mb 78f 79f
4:10am  -   -   -  9 11 mph 1015.4mb 78f 79f
4:00am  -   -   -  9 11 mph 1015.4mb 78f 79f
3:50am 0.7ft  -  2s 7 9 mph 1015.3mb 78f 79f
3:40am  -   -   -  7 9 mph 1015.2mb 78f 79f
3:30am  -   -   -  7 9 mph 1015.3mb 78f 79f
3:20am  -   -   -  9 11 mph 1015.1mb 78f 79f
3:10am  -   -   -  9 11 mph 1014.9mb 79f 79f
3:00am  -   -   -  9 11 mph 1015.1mb 79f 79f
2:50am 0.7ft  -  2s 9 11 mph 1015.1mb 79f 79f
2:40am  -   -   -  9 11 mph 1015.2mb 79f 80f
2:30am  -   -   -  9 11 mph 1015.3mb 79f 80f
2:20am  -   -   -  9 11 mph 1015.1mb 79f 79f
2:10am  -   -   -  9 11 mph 1015.1mb 79f 79f
2:00am  -   -   -  9 11 mph 1015.2mb 79f 79f
1:50am 0.7ft  -  2s 9 11 mph 1015.1mb 79f 79f
1:40am  -   -   -  9
mph
1015.2mb - 79f
1:30am  -   -   -  9 11 mph 1015.2mb 79f 79f
1:20am  -   -   -  11 13 mph 1015.2mb 79f 79f
1:10am  -   -   -  11 13 mph 1015.3mb 79f 79f
1:00am  -   -   -  11 13 mph 1015.3mb 79f 79f
12:50am 0.7ft  -  2s 11 13 mph 1015.3mb 79f 79f
12:40am  -   -   -  11 13 mph 1015.3mb 79f 79f
12:30am  -   -   -  11 13 mph 1015.2mb 79f 79f
12:20am  -   -   -  11 13 mph 1015.2mb 79f 79f
12:10am  -   -   -  11 13 mph 1015mb 79f 79f
12:00am  -   -   -  9 11 mph 1015.2mb 79f 79f
Sat 07/23 11:50pm 0.7ft  -  2s 9 13 mph 1015.4mb 79f 80f
11:40pm 0.7ft  -  2s 11 13 mph 1015.5mb 79f 80f
11:30pm  -   -   -  11 13 mph 1015.4mb 79f 81f
11:20pm  -   -   -  11 13 mph 1015.5mb 79f 81f
11:10pm  -   -   -  11 13 mph 1015.6mb 79f 81f
11:00pm  -   -   -  9 11 mph 1015.7mb 80f 80f
10:50pm 0.3ft  -  3s 9 11 mph 1015.6mb 80f 80f
10:40pm  -   -   -  9 11 mph 1015.4mb 80f 81f
10:30pm  -   -   -  9 11 mph 1015.4mb 80f 81f
10:20pm  -   -   -  9 13 mph 1015.5mb 80f 81f
10:10pm  -   -   -  9 11 mph 1015.5mb 80f 81f
10:00pm  -   -   -  11 13 mph 1015.4mb 80f 81f
9:50pm 0.3ft  -  3s 11 13 mph 1015.3mb 80f 81f
9:40pm  -   -   -  11 13 mph 1015.4mb 80f 82f
9:30pm  -   -   -  9 13 mph 1015.5mb 80f 81f
9:20pm  -   -   -  4 9 mph 1015.4mb 80f 81f
9:10pm  -   -   -  4
mph
1015.1mb 80f 81f
9:00pm  -   -   -  4
mph
1015.2mb 80f 81f
8:50pm 0.3ft  -  3s 2 4 mph 1015.2mb 80f 81f
8:40pm  -   -   -  2 4 mph 1014.9mb 80f 81f
8:30pm  -   -   -   -  2 mph 1014.9mb 80f 81f
8:20pm  -   -   -  2 4 mph 1014.6mb 81f 81f
8:10pm  -   -   -  2 4 mph 1014.5mb 80f 81f
8:00pm  -   -   -  4
mph
1014.1mb 80f 81f
7:50pm 0.3ft  -  3s 4
mph
1014.1mb 80f 81f
7:40pm  -   -   -  4 7 mph 1014mb 81f 81f
7:30pm  -   -   -  7
mph
1013.9mb 80f 82f
7:20pm  -   -   -  4 7 mph 1013.9mb 80f 82f
7:10pm  -   -   -  4 7 mph 1013.9mb 80f 82f
7:00pm  -   -   -  4 7 mph 1013.9mb 80f 82f
6:50pm 0.3ft  -  3s 4
mph
1013.9mb 80f 82f
6:40pm  -   -   -  4
mph
1013.9mb 80f 82f
6:30pm  -   -   -  4
mph
1013.9mb 80f 83f
6:20pm  -   -   -  2
mph
1013.9mb 80f 82f
6:10pm  -   -   -  4 7 mph 1013.9mb 81f 82f
6:00pm  -   -   -  7
mph
1014mb 80f 82f
5:50pm 0.3ft  -  3s 4 7 mph 1013.9mb 80f 82f
5:40pm  -   -   -  2 4 mph 1014mb 80f 83f
5:30pm  -   -   -  2 4 mph 1014.1mb 80f 83f
5:20pm  -   -   -  2 4 mph 1014.3mb 80f 83f
5:10pm  -   -   -  2 4 mph 1014.5mb 80f 83f
5:00pm  -   -   -  2
mph
1014.4mb 80f 83f
4:50pm 0.3ft  -  3s  -  2 mph 1014.3mb 80f 83f
4:40pm  -   -   -  2
mph
1014.5mb 80f 83f
4:30pm  -   -   -  2
mph
1014.6mb 80f 83f
4:20pm  -   -   -  2 4 mph 1014.5mb 80f 83f
4:10pm  -   -   -  4
mph
1014.6mb 80f 83f
4:00pm  -   -   -  4
mph
1014.8mb 80f 83f
3:50pm 0.3ft  -  3s 4
mph
1014.8mb 80f 83f
3:40pm  -   -   -  4
mph
1014.8mb 80f 82f
3:30pm  -   -   -  4
mph
1015mb 80f 82f
3:20pm  -   -   -  4 7 mph 1015mb 80f 82f
3:10pm  -   -   -  7
mph
1015.1mb 80f 82f
3:00pm  -   -   -  4 7 mph 1015.2mb 80f 82f
2:50pm 0.3ft  -  3s 4
mph
1015.2mb 80f 82f
2:40pm  -   -   -  4
mph
1015.3mb 80f 82f
2:30pm  -   -   -  4
mph
1015.2mb 80f 81f
2:20pm  -   -   -  4
mph
1015.1mb 80f 81f
2:10pm  -   -   -  4
mph
1015.3mb 80f 81f
2:00pm  -   -   -  4 7 mph 1015.4mb 80f 81f
1:50pm 0.3ft  -  3s 4 7 mph 1015.4mb 79f 81f
1:40pm 0.3ft  -  3s 4 7 mph 1015.6mb 79f 81f
1:30pm  -   -   -  4 7 mph 1015.8mb 79f 80f
1:20pm  -   -   -  4 7 mph 1015.7mb 79f 80f
1:10pm  -   -   -  4 7 mph 1015.9mb 79f 80f
1:00pm  -   -   -  4 7 mph 1015.9mb 79f 80f
12:50pm 0.3ft  -  3s 7
mph
1016mb 79f 80f
12:40pm  -   -   -  7
mph
1016.1mb 79f 79f
12:30pm  -   -   -  7
mph
1016mb 79f 79f
12:20pm  -   -   -  7
mph
1016.2mb 79f 79f
12:10pm  -   -   -  4 7 mph 1015.9mb 79f 79f
12:00pm  -   -   -  4 7 mph 1015.9mb 79f 79f
11:50am 0.3ft  -  3s 4
mph
1015.5mb 79f 79f
11:40am  -   -   -  4 7 mph 1015.5mb 79f 79f
11:30am  -   -   -  4
mph
1015.5mb 79f 78f
11:20am  -   -   -  4
mph
1015.3mb 79f 79f
11:10am  -   -   -  4
mph
1015.4mb 79f 78f
11:00am  -   -   -  4
mph
1015.3mb 79f 78f
10:50am 0.3ft  -  2s 4
mph
1015.4mb 79f 78f
10:40am  -   -   -  4
mph
1015.4mb 78f 78f
10:30am  -   -   -  4 7 mph 1015.6mb 78f 78f
10:20am  -   -   -  4 7 mph 1015.6mb 78f 78f
10:10am  -   -   -  7
mph
1015.6mb 78f 78f
10:00am  -   -   -  7
mph
1015.6mb 78f 78f
9:50am 0.3ft  -  3s 4 7 mph 1015.7mb 78f 78f
9:40am 0.3ft  -  3s 4 7 mph 1015.8mb 78f 78f
9:30am  -   -   -  4 7 mph 1015.7mb 78f 78f
9:20am  -   -   -  7
mph
1015.8mb 78f 78f
9:10am  -   -   -  4 7 mph 1015.7mb 78f 78f
9:00am  -   -   -  4 7 mph 1015.8mb 78f 78f
8:50am 0.3ft  -  2s 4 7 mph 1015.6mb 78f 78f
8:40am  -   -   -  4 7 mph 1015.6mb 78f 78f
8:30am  -   -   -  4
mph
1015.4mb 78f 78f
8:20am  -   -   -  4
mph
1015.4mb 78f 78f
8:10am  -   -   -  4 7 mph 1015.5mb 78f 78f
8:00am  -   -   -  4 7 mph 1015.4mb 78f 78f
7:50am 0.3ft  -  2s 7
mph
1015.6mb 78f 78f
7:40am 0.3ft  -  2s 7 9 mph 1015.7mb 78f 78f
7:30am  -   -   -  7 9 mph 1015.6mb 78f 78f
7:20am  -   -   -  7 9 mph 1015.5mb 78f 78f
7:10am  -   -   -  7 9 mph 1015.4mb 78f 78f
7:00am  -   -   -  7 9 mph 1015.3mb 78f 78f
6:50am 0.3ft  -  2s 7 9 mph 1015.2mb 78f 78f
6:40am  -   -   -  7 9 mph 1015.1mb 78f 78f
6:30am  -   -   -  7 9 mph 1015.1mb 78f 78f
6:20am  -   -   -  7
mph
1015.1mb 78f 78f
6:10am  -   -   -  7
mph
1015.2mb 78f 78f
6:00am  -   -   -  4 7 mph 1014.9mb 78f 78f
5:50am 0.3ft  -  2s 7
mph
1015mb 78f 78f
5:40am  -   -   -  7
mph
1015.1mb 78f 78f
5:30am  -   -   -  7 9 mph 1015mb 78f 78f
5:20am  -   -   -  7
mph
1015mb 78f 78f
5:10am  -   -   -  4 7 mph 1014.9mb 78f 78f
5:00am  -   -   -  4
mph
1014.9mb 78f 78f
4:50am 0.7ft  -  2s 4
mph
1014.8mb 78f 78f
4:40am  -   -   -  4 7 mph 1014.7mb 78f 78f
4:30am  -   -   -  4 7 mph 1014.7mb 78f 78f
4:20am  -   -   -  7
mph
1014.8mb 78f 78f
4:10am  -   -   -  7 9 mph 1014.7mb 78f 78f
4:00am  -   -   -  7 9 mph 1014.6mb 78f 78f
3:50am 0.3ft  -  2s 7 9 mph 1014.6mb 78f 79f
3:40am  -   -   -  7 9 mph 1014.6mb 78f 79f
3:30am  -   -   -  9 11 mph 1014.7mb 78f 79f
3:20am  -   -   -  9 11 mph 1014.7mb 78f 79f
3:10am  -   -   -  9 11 mph 1014.8mb 78f 79f
3:00am  -   -   -  9 11 mph 1014.8mb 78f 79f
2:50am 0.3ft  -  2s 9
mph
1014.7mb 78f 79f
2:40am  -   -   -  9 11 mph 1014.7mb 78f 79f
2:30am  -   -   -  9 11 mph 1014.7mb 78f 79f
2:20am  -   -   -  7 9 mph 1014.7mb 78f 79f
2:10am  -   -   -  9
mph
1014.6mb 78f 79f
2:00am  -   -   -  9
mph
1014.5mb 78f 80f
1:50am 0.3ft  -  3s 7 9 mph 1014.6mb 78f 79f
1:40am  -   -   -  7 9 mph 1014.5mb 78f 79f
1:30am  -   -   -  9
mph
1014.5mb 78f 79f
1:20am  -   -   -  9
mph
1014.6mb 78f 79f
1:10am  -   -   -  9 11 mph 1014.7mb 78f 80f
1:00am  -   -   -  9 11 mph 1014.6mb 78f 80f
12:50am 0.3ft  -  3s 9
mph
1014.5mb 78f 79f
12:40am  -   -   -  7 9 mph 1014.4mb 78f 80f
12:30am  -   -   -  7 9 mph 1014.4mb 78f 80f
12:20am  -   -   -  7 9 mph 1014.5mb 78f 80f
12:10am  -   -   -  7 9 mph 1014.6mb 78f 80f
12:00am  -   -   -  7 9 mph 1014.6mb 78f 80f
Fri 07/22 11:50pm 0.3ft  -  3s 7 9 mph 1014.5mb 78f 80f
11:40pm  -   -   -  7 9 mph 1014.5mb 78f 80f
11:30pm  -   -   -  4 7 mph 1014.6mb 78f 80f
11:20pm  -   -   -  4 7 mph 1014.5mb 78f 80f
11:10pm  -   -   -  7
mph
1014.5mb 78f 80f
11:00pm  -   -   -  7 9 mph 1014.5mb 78f 80f
10:50pm 0.3ft  -  3s 9
mph
1014.5mb 78f 80f
10:40pm  -   -   -  9
mph
1014.6mb 78f 80f
10:30pm  -   -   -  7 9 mph 1014.6mb 78f 80f
10:20pm  -   -   -  7 9 mph 1014.6mb 78f 80f
10:10pm  -   -   -  7
mph
1014.6mb 78f 80f
10:00pm  -   -   -  7
mph
1014.5mb 78f 80f
9:50pm 0.3ft  -  3s 7 9 mph 1014.5mb 78f 80f
9:40pm  -   -   -  7
mph
1014.3mb 78f 80f
9:30pm  -   -   -  7 9 mph 1014.3mb 78f 80f
9:20pm  -   -   -  7 9 mph 1014.2mb 79f 80f
9:10pm  -   -   -  7
mph
1014.1mb 79f 80f
9:00pm  -   -   -  7
mph
1014mb 79f 81f
8:50pm 0.3ft  -  3s 4 7 mph 1013.8mb 79f 81f
8:40pm  -   -   -  4 7 mph 1013.7mb 79f 81f
8:30pm  -   -   -  4 7 mph 1013.7mb 79f 81f
8:20pm  -   -   -  4 7 mph 1013.8mb 79f 81f
8:10pm  -   -   -  4
mph
1013.8mb 79f 81f
8:00pm  -   -   -  4
mph
1013.7mb 79f 81f
7:50pm 0.3ft  -  3s 4
mph
1013.7mb 78f 82f
7:40pm  -   -   -  2 4 mph 1013.6mb 78f 82f
7:30pm  -   -   -  2
mph
1013.6mb 79f 82f
7:20pm  -   -   -  2 4 mph 1013.5mb 79f 82f
7:10pm  -   -   -  4
mph
1013.5mb 78f 82f
7:00pm  -   -   -  4 7 mph 1013.4mb 79f 82f
6:50pm 0.3ft  -  3s 7
mph
1013.3mb 79f 82f
6:40pm  -   -   -  7
mph
1013.4mb 79f 82f
6:30pm  -   -   -  4 7 mph 1013.4mb - 82f
6:20pm  -   -   -  7
mph
1013.5mb 78f 82f
6:10pm  -   -   -  7
mph
1013.5mb 78f 82f
6:00pm  -   -   -  7
mph
1013.5mb 79f 82f
5:50pm 0.3ft  -  3s 7 9 mph 1013.6mb 78f 82f
5:40pm  -   -   -  7
mph
1013.7mb 78f 82f
5:30pm  -   -   -  7
mph
1013.8mb 78f 82f
5:20pm  -   -   -  4 7 mph 1013.8mb 78f 82f
5:10pm  -   -   -  4 7 mph 1013.9mb 78f 82f
5:00pm  -   -   -  4 7 mph 1014.1mb 78f 82f
4:50pm 0.3ft  -  3s 4 7 mph 1014.1mb 78f 82f
4:40pm  -   -   -  4 7 mph 1014.1mb 78f 82f
4:30pm  -   -   -  4
mph
1014.2mb 78f 82f
4:20pm  -   -   -  4
mph
1014.2mb 78f 82f
4:10pm  -   -   -  7
mph
1014.2mb 78f 82f
4:00pm  -   -   -  7 9 mph 1014.4mb 78f 82f
3:50pm 0.3ft  -  3s 7 9 mph 1014.4mb 78f 81f
3:40pm  -   -   -  7 9 mph 1014.5mb 78f 81f
3:30pm  -   -   -  7 9 mph 1014.6mb 78f 81f
3:20pm  -   -   -  9
mph
1014.7mb 78f 81f
3:10pm  -   -   -  9 11 mph 1014.7mb 78f 81f
3:00pm  -   -   -  11
mph
1014.8mb 78f 80f
2:50pm 0.3ft  -  3s 11 13 mph 1015mb 78f 80f
2:40pm  -   -   -  11
mph
1015.2mb 78f 80f
2:30pm  -   -   -  9 11 mph 1015.4mb 78f 80f
2:20pm  -   -   -  9 11 mph 1015.6mb 78f 80f
2:10pm  -   -   -  9
mph
1015.8mb 78f 80f
2:00pm  -   -   -  7 9 mph 1015.9mb 78f 79f
1:50pm 0.3ft  -  3s 7 9 mph 1015.8mb - 79f
1:40pm  -   -   -  9
mph
1015.9mb 78f 79f
1:30pm  -   -   -  9 11 mph 1015.9mb 78f 79f
1:20pm  -   -   -  9 11 mph 1016.2mb 77f 79f
1:10pm  -   -   -  9 11 mph 1016.2mb 77f 79f
1:00pm  -   -   -  9 11 mph 1016.2mb 77f 79f
12:50pm 0.7ft  -  3s 11
mph
1016.2mb 77f 79f
12:40pm  -   -   -  9 11 mph 1016.1mb 77f 79f
12:30pm  -   -   -  9
mph
1015.9mb 77f 79f
12:20pm  -   -   -  7 9 mph 1015.8mb 77f 79f
12:10pm  -   -   -  7
mph
1015.6mb 77f 79f
12:00pm  -   -   -  7
mph
1015.6mb 77f 78f
11:50am 0.7ft  -  3s 4 7 mph 1015.6mb 77f 78f
11:40am  -   -   -  4 7 mph 1015.5mb 77f 78f
11:30am  -   -   -  7 9 mph 1015.5mb 77f 78f
11:20am  -   -   -  7 9 mph 1015.5mb 77f 78f
11:10am  -   -   -  7 9 mph 1015.6mb 77f 78f
11:00am  -   -   -  7
mph
1015.7mb 77f 78f
10:50am 1ft 3s 3s 7 9 mph 1015.7mb 76f 78f
10:40am  -   -   -  7 9 mph 1015.6mb 76f 78f
10:30am  -   -   -  7 9 mph 1015.6mb 76f 78f
10:20am  -   -   -  9 11 mph 1015.5mb 76f 78f
10:10am  -   -   -  9 11 mph 1015.5mb 76f 78f
10:00am  -   -   -  9 11 mph 1015.5mb 76f 78f
9:50am 1.6ft 3s 3s 11 13 mph 1015.4mb 76f 78f
9:40am  -   -   -  9 11 mph 1015.5mb 76f 77f
9:30am  -   -   -  9 11 mph 1015.5mb 76f 77f
9:20am  -   -   -  11 13 mph 1015.4mb 76f 77f
9:10am  -   -   -  11 13 mph 1015.4mb 76f 77f
9:00am  -   -   -  11 13 mph 1015.4mb 76f 77f
8:50am 2ft 3s 3s 11 16 mph 1015.4mb 76f 77f
8:40am 2ft  -  3s 11 13 mph 1015.2mb 76f 77f
8:30am  -   -   -  13 16 mph 1015mb 76f 77f
8:20am  -   -   -  13 18 mph 1015mb 76f 77f
8:10am  -   -   -  13 16 mph 1015mb 76f 77f
8:00am  -   -   -  13 16 mph 1014.9mb 76f 77f
7:50am 2.5ft 4s 3s 13 16 mph 1014.8mb 76f 77f
7:40am  -   -   -  13 18 mph 1014.8mb 76f 77f
7:30am  -   -   -  16 20 mph 1014.6mb 76f 77f
7:20am  -   -   -  16 20 mph 1014.6mb 76f 77f
7:10am  -   -   -  16 20 mph 1014.7mb 76f 77f
7:00am  -   -   -  16 20 mph 1014.7mb 76f 77f
6:50am 2.5ft 4s 3s 16 20 mph 1014.8mb 76f 77f
6:40am  -   -   -  16 20 mph 1014.9mb 76f 77f
6:30am  -   -   -  16 20 mph 1014.8mb 76f 77f
6:20am  -   -   -  16 20 mph 1014.7mb 76f 77f
6:10am  -   -   -  18 20 mph 1014.5mb 76f 78f
6:00am  -   -   -  16 20 mph 1014.1mb 76f 77f
5:50am 2.5ft 4s 3s 16 20 mph 1014mb 76f 78f
5:40am  -   -   -  18 22 mph 1013.9mb 76f 78f
5:30am  -   -   -  20 25 mph 1013.7mb 76f 78f
5:20am  -   -   -  20 25 mph 1013.2mb 76f 78f
5:10am  -   -   -  20 25 mph 1013.4mb 76f 78f
5:00am  -   -   -  18 22 mph 1013.7mb 76f 78f
4:50am 2.5ft 4s 3s 18 22 mph - 76f -
4:40am  -   -   -  16 22 mph 1014.1mb 76f 78f
4:30am  -   -   -  16 22 mph 1013.7mb 76f 78f
4:20am  -   -   -  16 20 mph 1013.9mb 76f 78f
4:10am  -   -   -  18 20 mph 1013.8mb 76f 78f
4:00am  -   -   -  18 22 mph 1013.8mb 76f 78f
3:50am 2ft 3s 3s 18 22 mph 1013.8mb 76f 78f
3:40am 2ft  -  3s 18 22 mph 1014mb 76f 78f
3:30am  -   -   -  18 20 mph 1014.2mb 76f 78f
3:20am  -   -   -  18 20 mph 1014.3mb 76f 78f
3:10am  -   -   -  18 20 mph 1014.5mb 76f 78f
3:00am  -   -   -  16 20 mph 1014.7mb 76f 78f